KOLY/OLY METAR and TAF weather

Enter ICAO airport designator
Station Type Date Time Source
KOLY METAR 2021/03/05 06:35 UTC NOAA

KOLY 050635Z AUTO 03009KT 10SM CLR 01/M02 A3028 RMK AO2 T00141025


Station Type Date Time Source
KOLY Decoded METAR 2021/03/05 06:35 UTC NOAA

Olney-Noble, Olney-Noble Airport, IL, United States (KOLY) 38-43-19N 088-10-35W
Mar 05, 2021 - 01:35 AM EST / 2021.03.05 0635 UTC
Wind: from the NNE (030 degrees) at 10 MPH (9 KT):0
Visibility: 10 mile(s):0
Sky conditions: clear
Temperature: 34.5 F (1.4 C)
Windchill: 26 F (-3 C):1
Dew Point: 27.5 F (-2.5 C)
Relative Humidity: 75%
Pressure (altimeter): 30.28 in. Hg (1025 hPa)
ob: KOLY 050635Z AUTO 03009KT 10SM CLR 01/M02 A3028 RMK AO2 T00141025
cycle: 6

Station Type Date Time Source
KOLY TAF UTC NOAA

Error!

Example: see airport list